createdAt,value
2023-03-11T00:01:32.775Z,0
2023-03-11T00:07:52.786Z,0
2023-03-11T00:14:15.858Z,0
2023-03-11T00:20:35.920Z,0
2023-03-11T00:26:58.835Z,0
2023-03-11T00:33:18.828Z,0
2023-03-11T00:39:41.778Z,0
2023-03-11T00:46:01.982Z,0
2023-03-11T00:52:24.777Z,0
2023-03-11T00:58:44.940Z,0
2023-03-11T01:05:07.773Z,0
2023-03-11T01:11:27.800Z,0
2023-03-11T01:17:50.885Z,0
2023-03-11T01:24:10.890Z,0
2023-03-11T01:30:33.860Z,0
2023-03-11T01:36:53.909Z,0
2023-03-11T01:43:16.868Z,0
2023-03-11T01:49:36.947Z,0
2023-03-11T01:55:59.889Z,0
2023-03-11T02:02:19.847Z,0
2023-03-11T02:08:42.835Z,0
2023-03-11T02:15:03.037Z,0
2023-03-11T02:21:25.831Z,0
2023-03-11T02:27:45.855Z,0
2023-03-11T02:34:08.805Z,0
2023-03-11T02:40:28.825Z,0
2023-03-11T02:46:51.861Z,0
2023-03-11T02:53:11.816Z,0
2023-03-11T02:59:34.865Z,0
2023-03-11T03:05:54.857Z,0
2023-03-11T03:12:17.868Z,0
2023-03-11T03:18:37.806Z,0
2023-03-11T03:25:00.739Z,0
2023-03-11T03:31:20.864Z,0
2023-03-11T03:37:43.811Z,0
2023-03-11T03:44:03.785Z,0
2023-03-11T03:50:26.779Z,0
2023-03-11T03:56:46.870Z,0
2023-03-11T04:03:09.939Z,0
2023-03-11T04:26:33.710Z,0
2023-03-11T04:32:53.765Z,0
2023-03-11T04:39:16.840Z,0
2023-03-11T04:45:36.800Z,0
2023-03-11T04:51:59.772Z,0
2023-03-11T04:58:19.745Z,0
2023-03-11T05:04:42.890Z,0
2023-03-11T05:11:02.827Z,0
2023-03-11T05:17:25.869Z,0
2023-03-11T05:23:45.907Z,0
2023-03-11T05:30:08.833Z,0
2023-03-11T05:36:28.759Z,0
2023-03-11T05:42:51.922Z,0
2023-03-11T05:49:11.875Z,0
2023-03-11T05:55:34.909Z,0
2023-03-11T06:01:54.850Z,0
2023-03-11T06:08:17.849Z,0
2023-03-11T06:14:37.942Z,5.62
2023-03-11T06:21:00.782Z,5.62
2023-03-11T06:27:20.768Z,5.62
2023-03-11T06:33:43.786Z,11.25
2023-03-11T06:40:03.765Z,11.25
2023-03-11T06:46:26.894Z,16.88
2023-03-11T06:52:46.832Z,16.88
2023-03-11T06:59:09.896Z,16.88
2023-03-11T07:05:29.745Z,16.88
2023-03-11T07:11:52.755Z,16.88
2023-03-11T07:18:12.773Z,16.88
2023-03-11T07:24:35.845Z,22.5
2023-03-11T07:30:55.856Z,22.5
2023-03-11T07:37:18.808Z,22.5
2023-03-11T07:43:38.782Z,28.12
2023-03-11T07:50:01.770Z,22.5
2023-03-11T07:56:21.805Z,28.12
2023-03-11T08:02:44.863Z,28.12
2023-03-11T08:09:04.754Z,28.12
2023-03-11T08:15:27.894Z,33.75
2023-03-11T08:21:47.842Z,33.75
2023-03-11T08:28:10.827Z,33.75
2023-03-11T08:34:30.914Z,39.38
2023-03-11T08:40:54.051Z,39.38
2023-03-11T08:47:13.830Z,39.38
2023-03-11T08:53:36.806Z,45
2023-03-11T08:59:56.835Z,45
2023-03-11T09:06:19.891Z,50.62
2023-03-11T09:29:44.751Z,50.62
2023-03-11T09:36:04.782Z,73.12
2023-03-11T09:42:27.822Z,61.88
2023-03-11T09:48:47.782Z,56.25
2023-03-11T09:55:10.759Z,61.88
2023-03-11T10:01:30.820Z,67.5
2023-03-11T10:07:53.895Z,112.5
2023-03-11T10:14:13.776Z,78.75
2023-03-11T10:20:36.758Z,61.88
2023-03-11T10:26:56.781Z,78.75
2023-03-11T10:33:19.832Z,61.88
2023-03-11T10:39:39.836Z,67.5
2023-03-11T10:46:02.922Z,84.38
2023-03-11T10:52:22.770Z,112.5
2023-03-11T10:58:45.779Z,90
2023-03-11T11:05:05.836Z,95.62
2023-03-11T11:11:28.767Z,123.75
2023-03-11T11:17:48.826Z,118.12
2023-03-11T11:24:11.876Z,101.25
2023-03-11T11:30:31.842Z,78.75
2023-03-11T11:36:54.806Z,78.75
2023-03-11T11:43:14.813Z,118.12
2023-03-11T11:49:37.767Z,84.38
2023-03-11T11:55:58.019Z,101.25
2023-03-11T12:02:20.795Z,95.62
2023-03-11T12:08:40.880Z,84.38
2023-03-11T12:15:03.768Z,180
2023-03-11T12:21:24.007Z,90
2023-03-11T12:27:46.767Z,146.25
2023-03-11T12:34:06.779Z,135
2023-03-11T12:40:29.856Z,106.88
2023-03-11T12:46:49.789Z,84.38
2023-03-11T12:53:13.681Z,90
2023-03-11T12:59:32.819Z,84.38
2023-03-11T13:05:55.789Z,84.38
2023-03-11T13:12:15.832Z,84.38
2023-03-11T13:18:38.914Z,84.38
2023-03-11T13:24:58.790Z,90
2023-03-11T13:31:21.851Z,129.38
2023-03-11T13:37:41.830Z,101.25
2023-03-11T13:44:04.794Z,163.12
2023-03-11T13:50:24.803Z,185.62
2023-03-11T13:56:47.812Z,123.75
2023-03-11T14:03:07.794Z,106.88
2023-03-11T14:09:30.802Z,112.5
2023-03-11T14:15:50.815Z,123.75
2023-03-11T14:22:13.798Z,129.38
2023-03-11T14:28:33.784Z,123.75
2023-03-11T14:51:20.811Z,118.12
2023-03-11T14:57:43.748Z,112.5
2023-03-11T15:04:04.093Z,101.25
2023-03-11T15:10:26.869Z,112.5
2023-03-11T15:16:46.863Z,106.88
2023-03-11T15:23:09.762Z,95.62
2023-03-11T15:29:29.824Z,84.38
2023-03-11T15:35:52.860Z,90
2023-03-11T15:42:12.755Z,84.38
2023-03-11T15:48:35.840Z,61.88
2023-03-11T15:54:56.300Z,45
2023-03-11T16:01:18.760Z,39.38
2023-03-11T16:07:39.980Z,45
2023-03-11T16:14:01.782Z,33.75
2023-03-11T16:20:21.877Z,28.12
2023-03-11T16:26:44.843Z,28.12
2023-03-11T16:33:05.348Z,22.5
2023-03-11T16:39:27.882Z,22.5
2023-03-11T16:45:47.887Z,16.88
2023-03-11T16:52:10.910Z,16.88
2023-03-11T16:58:30.841Z,11.25
2023-03-11T17:04:53.905Z,11.25
2023-03-11T17:11:13.776Z,5.62
2023-03-11T17:17:36.796Z,5.62
2023-03-11T17:23:56.838Z,0
2023-03-11T17:30:34.242Z,0
2023-03-11T17:36:39.911Z,0
2023-03-11T17:43:02.828Z,0
2023-03-11T17:49:24.596Z,0
2023-03-11T17:55:45.809Z,0
2023-03-11T18:02:05.949Z,0
2023-03-11T18:08:28.866Z,0
2023-03-11T18:14:48.805Z,0
2023-03-11T18:21:11.814Z,0
2023-03-11T18:27:31.882Z,0
2023-03-11T18:33:54.796Z,0
2023-03-11T18:40:14.824Z,0
2023-03-11T18:46:37.749Z,0
2023-03-11T18:52:57.736Z,0
2023-03-11T18:59:20.907Z,0
2023-03-11T19:05:40.740Z,0
2023-03-11T19:12:03.850Z,0
2023-03-11T19:18:24.026Z,0
2023-03-11T19:24:46.809Z,0
2023-03-11T19:31:06.869Z,0
2023-03-11T19:37:29.779Z,0
2023-03-11T20:00:53.566Z,0
2023-03-11T20:07:13.828Z,0
2023-03-11T20:13:36.796Z,0
2023-03-11T20:19:56.794Z,0
2023-03-11T20:26:19.858Z,0
2023-03-11T20:32:40.158Z,0
2023-03-11T20:39:02.877Z,0
2023-03-11T20:45:22.868Z,0
2023-03-11T20:51:45.802Z,0
2023-03-11T20:58:05.802Z,0
2023-03-11T21:04:28.870Z,0
2023-03-11T21:10:48.756Z,0
2023-03-11T21:17:11.879Z,0
2023-03-11T21:23:31.758Z,0
2023-03-11T21:29:55.769Z,0
2023-03-11T21:36:15.904Z,0
2023-03-11T21:42:38.856Z,0
2023-03-11T21:48:58.793Z,0
2023-03-11T21:55:21.806Z,0
2023-03-11T22:01:41.915Z,0
2023-03-11T22:08:04.893Z,0
2023-03-11T22:14:25.059Z,0
2023-03-11T22:20:47.799Z,0
2023-03-11T22:27:07.826Z,0
2023-03-11T22:33:30.924Z,0
2023-03-11T22:39:50.860Z,0
2023-03-11T22:46:13.932Z,0
2023-03-11T22:52:33.825Z,0
2023-03-11T22:58:56.760Z,0
2023-03-11T23:21:53.760Z,0
2023-03-11T23:28:13.770Z,0
2023-03-11T23:34:36.746Z,0
2023-03-11T23:40:56.851Z,0
2023-03-11T23:47:19.858Z,0
2023-03-11T23:53:39.786Z,0
